Wolfcreek, Wisconsin
Current Conditions -  °F | °C
As of 10:55 AM on Friday 28 Nov 2014 (Local Time) from KOEO Reporting Station
Overcast Overcast  
Wind Chill: -15°   Ceiling: 2200
Heat Index: -9°   Visibility: 10mi
Dew Point: -12°   Wind: 9mph
Humidity: 79%   Direction: 120°ESE
Pressure: 30.01"   Gusts: NA
Location:  45.4182°N, 92.6295°W
Report Text: KOEO 281655Z AUTO 12008KT 10SM OVC022 M09/M12 A3001 RMK AO2 T10901120
Loading
Personal Weather Stations






























Interactive Weather Map New forecast layout! Learn more

10-Day Weather Forecast

Advertisements
Track Severe Weather on mobile